メインページ
METAR-TAF:

METAR-TAF

空港 :

バーレーン国際空港

バーレーン, バーレーン

緯度: 26-16N, 経度: 050-39E, 海抜: 2m

現時点の気象観測

当レポートは22分前の23:00(UTC)に作成
西/北西の風 11kt
気温 21°C
湿度 69%
気圧 1019 hPa
視程10km以上
1,500メートル以下は雲なし、積乱雲なし

METAR: OBBI 112300Z 29011KT CAVOK 21/15 Q1019 NOSIG

時間: 02:22 (23:22 UTC)

予報

当レポートは6時間22分前の17:00(UTC)に作成
予報は11日の 18時(UTC)から 13日の 00時(UTC)まで有効
北/北西の風 16kt
視程10km以上
1,500メートル以下は雲なし、積乱雲なし

TAF: OBBI 111700Z 1118/1300 34016KT CAVOK

4,000以上の空港の気象観測と天気予報(METAR報とTAF報)

利用可能な観測所は地図上に黄色い丸と赤い丸で示す。

丸の上にカーソルを重ねると観測所名を参照できる。

次にクリックすると気象観測と天気予報を参照できる。

マップの切り替え:黒色「×」印の緑ボタンをクリックして拡大、「-」印の緑ボタンをクリックして縮小、緑色の三角印をクリックして隣りの地図に切り替え


METAR-TAF: